Brookesmith, Texas
Current Conditions -  °F | °C
As of 4:15 PM on Sunday 21 Dec 2014 (Local Time) from KBWD Reporting Station
Scattered Clouds Scattered Clouds  
Wind Chill: 57°   Ceiling: Unl
Heat Index: 57°   Visibility: 10mi
Dew Point: 45°   Wind: 16mph
Humidity: 63%   Direction: 190°S
Pressure: 29.82"   Gusts: NA
Location:  31.55°N, 99.12°W
Report Text: KBWD 212215Z AUTO 19014KT 10SM SCT027 14/07 A2982 RMK AO2
Loading
Personal Weather Stations






























Interactive Weather Map New forecast layout! Learn more

10-Day Weather Forecast

Advertisements
Track Severe Weather on mobile